Decoded Metar for KDYB ( in ) (IATA:) | Meteo·Mobile Aviation Weather
aviador You're here:

KDYB Decoded Metar

in
Report Time2019-04-23 07:35:00
UTC Time2019-04-23 07:54:36
Flight Rules vfr VFR
WindCalm
Visibility9999 m
Phenomena:N/A
Clouds:N/A
Expected CloudBase > 400 ft AGL from Temp-Dew spread
CeilingNone
Temp12°C
Dew Point11°C (94% RH)
QNH1021 hPa
Raw Report
METAR KDYB 230735Z AUTO 00000KT 10SM CLR 12/11 A3014 RMK AO1=

Extra information for KDYB:More info

Social comments